Hlavní strana
METAR-TAF:

METAR-TAF

Letiště :

San José, Kostarika

zeměpisná šířka: 09-57N, zeměpisná délka: 084-09W, výška: 994 m

Aktuální stav počasí

Zpráva byla vytvořena před 1 hodinou a 13 minutami, v 00:00 UTC
Východní vítr 14 kt
Teplota 21°C
Vlhkost vzduchu 78%
Tlak 1016 hPa
Viditelnost 10 km a více
Skoro jasno ve výšce 2000 ft
Polojasno ve výšce 20000 ft

METAR: MRPV 210000Z 10014KT 9999 FEW020 SCT200 21/17 A3000 NOSIG

Čas: 19:13 (01:13 UTC)

Předpověď počasí

Zpráva byla vytvořena před 2 hodinami a 13 minutami, v 23:00 UTC
Předpověď platná od 21 v 00 UTC do 21 v 24 UTC
Východní vítr 15 kt
Viditelnost 10 km a více
Skoro jasno ve výšce 3000 ft
Oblačno až skoro zataženo ve výšce 20000 ft
Dočasný
od 21 v 03 UTC do 21 v 15 UTC
Východní vítr 15 kt s nárazy do 25 kt

TAF: MRPV 202300Z 2100/2124 10015KT 9999 FEW030 BKN200 TX28/2119Z TN19/2110Z TEMPO 2103/2115 09015G25KT

Stav a předpovědi počasí z více než 4 000 letišť (zprávy METAR a TAF).

Červené a žluté tečky na mapě představují dostupné meteorologické stanice.

Když kurzor umístíte na tečku, zobrazí se název stanice.

Pak kliknutím zobrazíte stav a předpověď počasí.

Chcete-li změnit mapu, kliknutím na zelené tlačítko se znaménkem +mapu přiblížíte, kliknutím na zelené tlačítko se znaménkem – mapu oddálíte a kliknutím na zelené šipky přejdete na sousední mapy.


METAR-TAF: